createdAt,value
2023-05-06T00:01:21.596Z,96758.03
2023-05-06T00:03:49.492Z,96756.59
2023-05-06T00:06:17.319Z,96750.53
2023-05-06T00:08:46.656Z,96751.56
2023-05-06T00:11:14.280Z,96756.22
2023-05-06T00:13:41.943Z,96752.19
2023-05-06T00:16:09.554Z,96749.97
2023-05-06T00:18:37.153Z,96746.13
2023-05-06T00:21:04.968Z,96745.75
2023-05-06T00:23:32.642Z,96739.66
2023-05-06T00:26:01.583Z,96743.31
2023-05-06T00:28:29.138Z,96729.59
2023-05-06T00:30:56.701Z,96729.00
2023-05-06T00:33:24.249Z,96729.19
2023-05-06T00:35:53.210Z,96733.63
2023-05-06T00:38:20.750Z,96733.84
2023-05-06T00:40:48.345Z,96745.78
2023-05-06T00:43:17.247Z,96738.69
2023-05-06T00:45:44.822Z,96742.56
2023-05-06T00:48:12.570Z,96733.63
2023-05-06T00:50:41.593Z,96737.28
2023-05-06T00:53:10.421Z,96733.41
2023-05-06T00:55:38.952Z,96736.84
2023-05-06T00:58:07.093Z,96727.38
2023-05-06T01:00:36.021Z,96723.50
2023-05-06T01:03:03.706Z,96727.34
2023-05-06T01:05:36.704Z,96738.22
2023-05-06T01:08:10.374Z,96740.84
2023-05-06T01:10:45.958Z,96738.41
2023-05-06T01:13:18.274Z,96740.81
2023-05-06T01:15:49.047Z,96741.66
2023-05-06T01:18:18.364Z,96734.75
2023-05-06T01:20:49.664Z,96738.75
2023-05-06T01:23:19.505Z,96742.81
2023-05-06T01:25:47.367Z,96743.78
2023-05-06T01:28:15.129Z,96730.44
2023-05-06T01:30:50.853Z,96731.06
2023-05-06T01:33:24.787Z,96730.66
2023-05-06T01:36:02.959Z,96729.47
2023-05-06T01:38:38.652Z,96730.09
2023-05-06T01:41:06.728Z,96733.53
2023-05-06T01:43:38.712Z,96735.38
2023-05-06T01:46:10.255Z,96730.09
2023-05-06T01:48:40.381Z,96735.34
2023-05-06T01:51:10.674Z,96726.81
2023-05-06T01:53:39.833Z,96734.28
2023-05-06T01:56:08.350Z,96740.75
2023-05-06T01:58:36.397Z,96734.25
2023-05-06T02:01:03.931Z,96737.69
2023-05-06T02:03:31.514Z,96734.66
2023-05-06T02:05:59.074Z,96735.91
2023-05-06T02:08:26.591Z,96741.16
2023-05-06T02:10:55.475Z,96749.63
2023-05-06T02:13:23.034Z,96743.78
2023-05-06T02:15:53.823Z,96741.94
2023-05-06T02:18:21.609Z,96744.81
2023-05-06T02:20:49.227Z,96743.38
2023-05-06T02:23:16.744Z,96736.31
2023-05-06T02:25:44.346Z,96742.19
2023-05-06T02:28:13.295Z,96748.84
2023-05-06T02:30:40.834Z,96744.38
2023-05-06T02:33:08.344Z,96743.59
2023-05-06T02:35:35.863Z,96741.59
2023-05-06T02:38:04.204Z,96747.03
2023-05-06T02:40:31.714Z,96741.63
2023-05-06T02:42:59.314Z,96745.03
2023-05-06T02:45:28.258Z,96739.59
2023-05-06T02:47:55.847Z,96734.34
2023-05-06T02:50:23.408Z,96725.59
2023-05-06T02:52:50.935Z,96724.22
2023-05-06T02:55:19.884Z,96724.66
2023-05-06T02:57:47.437Z,96722.38
2023-05-06T03:00:15.519Z,96722.81
2023-05-06T03:02:44.565Z,96725.03
2023-05-06T03:05:12.385Z,96722.06
2023-05-06T03:07:40.159Z,96737.81
2023-05-06T03:10:08.540Z,96733.75
2023-05-06T03:12:36.177Z,96733.16
2023-05-06T03:15:03.780Z,96731.53
2023-05-06T03:17:31.286Z,96737.81
2023-05-06T03:20:00.141Z,96738.22
2023-05-06T03:22:27.653Z,96738.44
2023-05-06T03:24:55.180Z,96729.56
2023-05-06T03:27:22.702Z,96734.81
2023-05-06T03:29:50.206Z,96737.66
2023-05-06T03:32:17.718Z,96734.03
2023-05-06T03:34:45.244Z,96732.44
2023-05-06T03:37:14.256Z,96733.69
2023-05-06T03:39:41.738Z,96731.09
2023-05-06T03:42:09.841Z,96730.47
2023-05-06T03:44:37.541Z,96734.94
2023-05-06T03:47:05.044Z,96733.31
2023-05-06T03:49:32.629Z,96727.44
2023-05-06T03:52:00.661Z,96731.28
2023-05-06T03:54:29.637Z,96731.88
2023-05-06T03:56:57.164Z,96729.66
2023-05-06T03:59:24.694Z,96730.88
2023-05-06T04:01:52.228Z,96731.03
2023-05-06T04:04:19.764Z,96732.06
2023-05-06T04:06:47.270Z,96734.88
2023-05-06T04:09:14.792Z,96732.47
2023-05-06T04:11:43.635Z,96729.22
2023-05-06T04:14:11.227Z,96724.97
2023-05-06T04:16:38.919Z,96728.19
2023-05-06T04:19:06.996Z,96721.94
2023-05-06T04:21:34.570Z,96735.66
2023-05-06T04:24:02.465Z,96731.22
2023-05-06T04:26:29.982Z,96736.06
2023-05-06T04:28:59.251Z,96736.88
2023-05-06T04:31:29.630Z,96726.97
2023-05-06T04:33:57.224Z,96730.25
2023-05-06T04:36:24.849Z,96730.84
2023-05-06T04:38:52.737Z,96726.19
2023-05-06T04:41:20.482Z,96735.03
2023-05-06T04:43:48.078Z,96721.50
2023-05-06T04:46:17.270Z,96734.41
2023-05-06T04:48:44.925Z,96734.81
2023-05-06T04:51:12.541Z,96733.00
2023-05-06T04:53:40.709Z,96725.16
2023-05-06T04:56:09.097Z,96727.63
2023-05-06T04:58:36.603Z,96733.47
2023-05-06T05:01:06.198Z,96735.88
2023-05-06T05:03:35.606Z,96739.09
2023-05-06T05:06:03.198Z,96743.75
2023-05-06T05:08:30.852Z,96750.44
2023-05-06T05:10:58.377Z,96750.63
2023-05-06T05:13:25.967Z,96752.47
2023-05-06T05:15:55.786Z,96761.97
2023-05-06T05:18:23.459Z,96756.09
2023-05-06T05:20:53.413Z,96753.09
2023-05-06T05:23:21.209Z,96759.97
2023-05-06T05:25:48.894Z,96770.47
2023-05-06T05:28:16.546Z,96770.91
2023-05-06T05:30:44.158Z,96770.06
2023-05-06T05:33:11.852Z,96776.16
2023-05-06T05:35:39.594Z,96778.56
2023-05-06T05:38:08.542Z,96776.16
2023-05-06T05:40:37.281Z,96774.50
2023-05-06T05:43:05.033Z,96776.94
2023-05-06T05:45:32.663Z,96776.91
2023-05-06T05:48:00.355Z,96778.13
2023-05-06T05:50:28.277Z,96775.06
2023-05-06T05:52:55.844Z,96777.06
2023-05-06T05:55:24.777Z,96780.09
2023-05-06T05:57:52.285Z,96779.91
2023-05-06T06:00:20.632Z,96792.47
2023-05-06T06:02:48.205Z,96786.59
2023-05-06T06:05:15.832Z,96792.66
2023-05-06T06:07:43.352Z,96793.09
2023-05-06T06:10:13.333Z,96800.75
2023-05-06T06:12:44.116Z,96796.50
2023-05-06T06:15:12.615Z,96797.50
2023-05-06T06:17:40.984Z,96801.94
2023-05-06T06:20:09.773Z,96801.91
2023-05-06T06:22:37.331Z,96804.75
2023-05-06T06:25:05.227Z,96807.97
2023-05-06T06:27:35.664Z,96807.75
2023-05-06T06:30:05.215Z,96807.97
2023-05-06T06:32:32.822Z,96804.31
2023-05-06T06:35:00.500Z,96812.81
2023-05-06T06:37:28.024Z,96812.03
2023-05-06T06:39:55.517Z,96821.72
2023-05-06T06:42:23.198Z,96815.88
2023-05-06T06:44:50.692Z,96818.50
2023-05-06T06:47:19.558Z,96824.97
2023-05-06T06:49:47.081Z,96817.06
2023-05-06T06:52:14.643Z,96823.13
2023-05-06T06:54:42.261Z,96819.47
2023-05-06T06:57:10.054Z,96814.38
2023-05-06T06:59:37.549Z,96815.38
2023-05-06T07:02:05.092Z,96815.56
2023-05-06T07:04:33.989Z,96818.41
2023-05-06T07:07:01.542Z,96819.00
2023-05-06T07:09:29.336Z,96826.03
2023-05-06T07:11:56.882Z,96821.94
2023-05-06T07:14:25.746Z,96822.31
2023-05-06T07:16:53.281Z,96824.69
2023-05-06T07:19:20.830Z,96828.91
2023-05-06T07:21:49.725Z,96835.94
2023-05-06T07:24:17.249Z,96829.84
2023-05-06T07:26:45.045Z,96830.22
2023-05-06T07:29:12.545Z,96831.78
2023-05-06T07:31:40.208Z,96844.72
2023-05-06T07:34:07.984Z,96843.22
2023-05-06T07:36:40.499Z,96843.75
2023-05-06T07:39:09.441Z,96844.50
2023-05-06T07:41:37.077Z,96842.06
2023-05-06T07:44:05.046Z,96844.00
2023-05-06T07:46:32.776Z,96841.84
2023-05-06T07:49:00.460Z,96846.16
2023-05-06T07:51:28.116Z,96847.72
2023-05-06T07:53:55.743Z,96841.19
2023-05-06T07:56:24.651Z,96841.00
2023-05-06T07:58:52.155Z,96838.50
2023-05-06T08:01:19.712Z,96841.50
2023-05-06T08:03:47.374Z,96846.72
2023-05-06T08:06:15.009Z,96855.13
2023-05-06T08:08:42.512Z,96846.94
2023-05-06T08:11:10.157Z,96848.13
2023-05-06T08:13:39.055Z,96849.78
2023-05-06T08:16:07.815Z,96855.16
2023-05-06T08:18:35.353Z,96853.59
2023-05-06T08:21:02.880Z,96851.56
2023-05-06T08:23:31.892Z,96846.56
2023-05-06T08:26:00.021Z,96850.88
2023-05-06T08:28:29.190Z,96853.31
2023-05-06T08:30:58.048Z,96851.94
2023-05-06T08:33:25.579Z,96859.91
2023-05-06T08:35:53.088Z,96858.00
2023-05-06T08:38:20.653Z,96863.16
2023-05-06T08:40:50.344Z,96861.53
2023-05-06T08:43:21.771Z,96863.97
2023-05-06T08:45:50.596Z,96867.19
2023-05-06T08:48:19.726Z,96855.94
2023-05-06T08:50:49.980Z,96857.66
2023-05-06T08:53:17.697Z,96851.44
2023-05-06T08:55:46.374Z,96851.66
2023-05-06T08:58:16.865Z,96857.78
2023-05-06T09:00:49.743Z,96849.25
2023-05-06T09:03:18.968Z,96854.75
2023-05-06T09:05:46.679Z,96848.06
2023-05-06T09:08:14.884Z,96849.22
2023-05-06T09:10:45.277Z,96851.19
2023-05-06T09:13:14.558Z,96843.91
2023-05-06T09:15:42.785Z,96849.41
2023-05-06T09:18:10.640Z,96845.34
2023-05-06T09:20:42.472Z,96847.28
2023-05-06T09:23:10.131Z,96846.03
2023-05-06T09:25:37.892Z,96851.41
2023-05-06T09:28:06.090Z,96844.19
2023-05-06T09:30:33.647Z,96856.28
2023-05-06T09:33:04.675Z,96851.22
2023-05-06T09:35:37.989Z,96849.41
2023-05-06T09:38:07.586Z,96850.75
2023-05-06T09:40:36.006Z,96853.16
2023-05-06T09:43:04.337Z,96850.19
2023-05-06T09:45:32.699Z,96844.91
2023-05-06T09:48:00.431Z,96842.19
2023-05-06T09:50:36.536Z,96841.81
2023-05-06T09:53:07.461Z,96842.25
2023-05-06T09:55:36.311Z,96847.63
2023-05-06T09:58:04.726Z,96849.91
2023-05-06T10:00:33.213Z,96844.38
2023-05-06T10:03:01.817Z,96850.47
2023-05-06T10:05:30.114Z,96846.19
2023-05-06T10:07:58.320Z,96842.88
2023-05-06T10:10:29.491Z,96836.00
2023-05-06T10:12:57.995Z,96835.50
2023-05-06T10:15:26.914Z,96829.66
2023-05-06T10:17:56.174Z,96840.47
2023-05-06T10:20:27.144Z,96837.94
2023-05-06T10:23:04.482Z,96836.06
2023-05-06T10:25:37.253Z,96833.91
2023-05-06T10:28:06.511Z,96831.00
2023-05-06T10:30:36.824Z,96822.75
2023-05-06T10:33:06.802Z,96818.63
2023-05-06T10:35:45.529Z,96818.78
2023-05-06T10:38:17.092Z,96817.19
2023-05-06T10:40:46.754Z,96812.91
2023-05-06T10:43:25.264Z,96809.69
2023-05-06T10:46:04.143Z,96806.91
2023-05-06T10:48:32.682Z,96808.84
2023-05-06T10:51:31.502Z,96806.75
2023-05-06T10:54:03.022Z,96804.09
2023-05-06T10:56:33.622Z,96797.22
2023-05-06T10:59:08.016Z,96808.59
2023-05-06T11:01:36.421Z,96802.13
2023-05-06T11:04:09.497Z,96802.28
2023-05-06T11:06:40.237Z,96806.84
2023-05-06T11:09:16.622Z,96793.13
2023-05-06T11:11:54.368Z,96787.94
2023-05-06T11:14:29.670Z,96790.44
2023-05-06T11:16:58.853Z,96788.84
2023-05-06T11:19:28.098Z,96789.97
2023-05-06T11:21:57.562Z,96790.09
2023-05-06T11:24:27.652Z,96787.28
2023-05-06T11:27:02.128Z,96788.41
2023-05-06T11:29:29.646Z,96783.91
2023-05-06T11:31:57.182Z,96779.25
2023-05-06T11:34:27.194Z,96782.75
2023-05-06T11:37:02.238Z,96782.28
2023-05-06T11:39:36.492Z,96787.97
2023-05-06T11:42:09.068Z,96783.53
2023-05-06T11:44:38.119Z,96782.22
2023-05-06T11:47:08.099Z,96777.47
2023-05-06T11:49:39.972Z,96783.06
2023-05-06T11:52:09.477Z,96780.31
2023-05-06T11:54:39.500Z,96780.25
2023-05-06T11:57:08.803Z,96784.44
2023-05-06T11:59:38.183Z,96780.94
2023-05-06T12:02:06.957Z,96777.72
2023-05-06T12:04:38.714Z,96776.09
2023-05-06T12:07:07.497Z,96776.91
2023-05-06T12:09:37.064Z,96779.31
2023-05-06T12:12:05.791Z,96772.97
2023-05-06T12:14:35.194Z,96772.97
2023-05-06T12:17:03.554Z,96765.50
2023-05-06T12:19:31.919Z,96768.88
2023-05-06T12:22:17.980Z,96769.38
2023-05-06T12:24:45.713Z,96765.84
2023-05-06T12:27:13.374Z,96763.69
2023-05-06T12:29:53.693Z,96764.25
2023-05-06T12:32:21.226Z,96761.97
2023-05-06T12:34:48.743Z,96752.78
2023-05-06T12:37:25.476Z,96751.81
2023-05-06T12:39:53.049Z,96748.44
2023-05-06T12:42:21.366Z,96756.72
2023-05-06T12:44:50.647Z,96750.91
2023-05-06T12:47:22.553Z,96746.75
2023-05-06T12:49:51.891Z,96744.19
2023-05-06T12:52:21.410Z,96743.22
2023-05-06T12:54:49.318Z,96744.63
2023-05-06T12:57:16.936Z,96744.44
2023-05-06T12:59:44.954Z,96739.94
2023-05-06T13:02:14.754Z,96736.44
2023-05-06T13:04:43.017Z,96746.22
2023-05-06T13:07:10.564Z,96741.47
2023-05-06T13:09:38.256Z,96736.25
2023-05-06T13:12:07.505Z,96740.81
2023-05-06T13:14:36.932Z,96736.06
2023-05-06T13:17:06.812Z,96739.25
2023-05-06T13:19:36.102Z,96731.84
2023-05-06T13:22:03.922Z,96730.78
2023-05-06T13:24:33.264Z,96732.13
2023-05-06T13:27:01.359Z,96729.00
2023-05-06T13:29:29.441Z,96719.47
2023-05-06T13:31:57.093Z,96722.41
2023-05-06T13:34:24.768Z,96720.63
2023-05-06T13:36:54.624Z,96723.84
2023-05-06T13:39:22.638Z,96720.63
2023-05-06T13:41:51.130Z,96716.13
2023-05-06T13:44:19.289Z,96724.09
2023-05-06T13:46:47.073Z,96701.25
2023-05-06T13:49:14.831Z,96703.91
2023-05-06T13:51:42.411Z,96701.25
2023-05-06T13:54:11.310Z,96696.47
2023-05-06T13:56:38.863Z,96699.13
2023-05-06T13:59:08.344Z,96688.75
2023-05-06T14:01:36.525Z,96686.91
2023-05-06T14:04:04.432Z,96686.91
2023-05-06T14:06:32.179Z,96680.00
2023-05-06T14:08:59.794Z,96677.06
2023-05-06T14:11:28.709Z,96691.16
2023-05-06T14:13:56.664Z,96675.47
2023-05-06T14:16:24.201Z,96669.38
2023-05-06T14:18:51.735Z,96673.94
2023-05-06T14:21:19.282Z,96667.78
2023-05-06T14:23:46.849Z,96666.72
2023-05-06T14:26:14.861Z,96663.53
2023-05-06T14:28:43.766Z,96658.22
2023-05-06T14:31:11.430Z,96660.34
2023-05-06T14:33:39.438Z,96650.28
2023-05-06T14:36:07.610Z,96648.41
2023-05-06T14:38:35.144Z,96642.31
2023-05-06T14:41:02.731Z,96641.22
2023-05-06T14:43:30.260Z,96645.97
2023-05-06T14:45:59.170Z,96646.72
2023-05-06T14:48:26.723Z,96641.09
2023-05-06T14:50:54.285Z,96638.41
2023-05-06T14:53:21.844Z,96638.41
2023-05-06T14:55:49.412Z,96629.91
2023-05-06T14:58:17.733Z,96625.66
2023-05-06T15:00:45.863Z,96630.16
2023-05-06T15:03:27.326Z,96638.88
2023-05-06T15:06:08.190Z,96635.66
2023-05-06T15:08:48.464Z,96639.38
2023-05-06T15:11:36.531Z,96627.16
2023-05-06T15:24:55.879Z,96630.31
2023-05-06T15:27:46.360Z,96635.06
2023-05-06T15:30:52.582Z,96621.75
2023-05-06T15:33:50.960Z,96627.56
2023-05-06T15:39:58.882Z,96630.16
2023-05-06T15:43:08.376Z,96637.53
2023-05-06T15:45:50.915Z,96627.91
2023-05-06T15:51:47.085Z,96631.88
2023-05-06T15:54:40.909Z,96630.03
2023-05-06T15:57:36.257Z,96633.75
2023-05-06T16:00:47.256Z,96637.69
2023-05-06T16:06:21.330Z,96632.88
2023-05-06T16:09:01.927Z,96631.00
2023-05-06T16:11:48.737Z,96632.63
2023-05-06T16:14:29.104Z,96630.22
2023-05-06T16:17:16.102Z,96619.06
2023-05-06T16:20:28.904Z,96628.31
2023-05-06T16:23:14.975Z,96624.06
2023-05-06T16:26:10.820Z,96627.75
2023-05-06T16:29:10.676Z,96615.00
2023-05-06T16:31:54.403Z,96628.25
2023-05-06T16:40:36.847Z,96621.34
2023-05-06T16:43:35.374Z,96617.66
2023-05-06T16:47:09.844Z,96619.75
2023-05-06T16:53:15.287Z,96618.03
2023-05-06T16:55:51.628Z,96613.78
2023-05-06T16:58:20.667Z,96621.72
2023-05-06T17:00:51.882Z,96620.69
2023-05-06T17:03:21.331Z,96622.78
2023-05-06T17:05:50.550Z,96614.28
2023-05-06T17:08:18.930Z,96615.31
2023-05-06T17:10:48.479Z,96617.97
2023-05-06T17:13:16.247Z,96619.25
2023-05-06T17:15:44.291Z,96618.47
2023-05-06T17:18:12.649Z,96610.28
2023-05-06T17:20:54.343Z,96612.59
2023-05-06T17:23:23.405Z,96615.50
2023-05-06T17:25:54.068Z,96608.84
2023-05-06T17:28:27.894Z,96608.28
2023-05-06T17:30:59.438Z,96604.84
2023-05-06T17:33:27.216Z,96605.34
2023-05-06T17:35:55.190Z,96598.94
2023-05-06T17:38:23.300Z,96602.31
2023-05-06T17:40:53.110Z,96605.44
2023-05-06T17:43:21.466Z,96600.09
2023-05-06T17:45:50.881Z,96600.84
2023-05-06T17:48:19.196Z,96600.28
2023-05-06T17:50:46.950Z,96608.44
2023-05-06T17:53:14.759Z,96603.63
2023-05-06T17:55:42.379Z,96602.25
2023-05-06T17:58:11.821Z,96607.25
2023-05-06T18:00:39.500Z,96604.28
2023-05-06T18:03:07.140Z,96605.56
2023-05-06T18:05:34.771Z,96602.59
2023-05-06T18:08:02.377Z,96605.75
2023-05-06T18:10:29.916Z,96607.50
2023-05-06T18:12:57.690Z,96608.25
2023-05-06T18:15:26.907Z,96605.19
2023-05-06T18:17:54.473Z,96606.09
2023-05-06T18:20:22.076Z,96606.75
2023-05-06T18:22:49.646Z,96609.00
2023-05-06T18:25:17.294Z,96608.34
2023-05-06T18:27:44.803Z,96614.34
2023-05-06T18:30:13.008Z,96609.19
2023-05-06T18:32:41.966Z,96613.59
2023-05-06T18:35:10.891Z,96621.94
2023-05-06T18:37:39.235Z,96613.56
2023-05-06T18:40:09.137Z,96617.16
2023-05-06T18:42:36.784Z,96623.16
2023-05-06T18:45:06.954Z,96616.44
2023-05-06T18:47:36.844Z,96628.97
2023-05-06T18:50:06.933Z,96626.94
2023-05-06T18:52:36.317Z,96628.69
2023-05-06T18:55:04.915Z,96626.50
2023-05-06T18:57:32.473Z,96632.72
2023-05-06T18:59:59.976Z,96635.03
2023-05-06T19:02:27.705Z,96642.72
2023-05-06T19:04:55.302Z,96642.16
2023-05-06T19:07:26.360Z,96642.50
2023-05-06T19:09:55.213Z,96634.94
2023-05-06T19:12:23.564Z,96647.44
2023-05-06T19:14:51.185Z,96653.69
2023-05-06T19:17:18.696Z,96649.31
2023-05-06T19:19:48.534Z,96647.03
2023-05-06T19:22:17.038Z,96656.31
2023-05-06T19:24:44.780Z,96648.75
2023-05-06T19:27:13.749Z,96648.28
2023-05-06T19:29:41.331Z,96650.44
2023-05-06T19:32:09.676Z,96654.47
2023-05-06T19:34:37.362Z,96655.59
2023-05-06T19:37:04.972Z,96657.75
2023-05-06T19:39:32.597Z,96655.44
2023-05-06T19:42:00.147Z,96654.25
2023-05-06T19:44:28.984Z,96665.50
2023-05-06T19:46:56.523Z,96661.13
2023-05-06T19:49:24.118Z,96664.84
2023-05-06T19:51:51.617Z,96664.16
2023-05-06T19:54:19.884Z,96664.25
2023-05-06T19:56:47.582Z,96659.06
2023-05-06T19:59:15.118Z,96665.22
2023-05-06T20:01:44.268Z,96666.78
2023-05-06T20:04:12.100Z,96667.91
2023-05-06T20:06:39.640Z,96665.56
2023-05-06T20:09:07.203Z,96660.56
2023-05-06T20:11:35.041Z,96662.47
2023-05-06T20:14:02.626Z,96663.34
2023-05-06T20:16:30.583Z,96660.31
2023-05-06T20:19:00.074Z,96667.88
2023-05-06T20:21:27.789Z,96664.06
2023-05-06T20:23:55.452Z,96662.66
2023-05-06T20:26:25.055Z,96669.59
2023-05-06T20:28:54.196Z,96655.91
2023-05-06T20:31:22.471Z,96662.50
2023-05-06T20:33:50.365Z,96665.19
2023-05-06T20:36:27.187Z,96660.19
2023-05-06T20:38:54.868Z,96660.63
2023-05-06T20:41:22.487Z,96659.44
2023-05-06T20:43:52.783Z,96663.31
2023-05-06T20:46:20.590Z,96657.09
2023-05-06T20:48:48.362Z,96657.53
2023-05-06T20:51:16.741Z,96661.59
2023-05-06T20:53:46.109Z,96661.00
2023-05-06T20:56:18.470Z,96666.28
2023-05-06T20:58:46.031Z,96656.16
2023-05-06T21:01:13.578Z,96658.00
2023-05-06T21:03:43.653Z,96655.34
2023-05-06T21:06:11.477Z,96648.72
2023-05-06T21:08:39.117Z,96653.38
2023-05-06T21:11:08.050Z,96652.19
2023-05-06T21:13:35.832Z,96657.88
2023-05-06T21:16:03.624Z,96660.94
2023-05-06T21:18:31.293Z,96661.38
2023-05-06T21:20:59.735Z,96658.13
2023-05-06T21:23:27.566Z,96659.16
2023-05-06T21:25:55.211Z,96658.56
2023-05-06T21:28:24.605Z,96670.09
2023-05-06T21:30:52.226Z,96669.50
2023-05-06T21:33:20.185Z,96668.72
2023-05-06T21:35:47.805Z,96666.47
2023-05-06T21:38:15.349Z,96669.53
2023-05-06T21:40:42.894Z,96661.47
2023-05-06T21:43:10.531Z,96659.03
2023-05-06T21:45:39.416Z,96665.75
2023-05-06T21:48:07.709Z,96661.91
2023-05-06T21:50:37.470Z,96661.56
2023-05-06T21:53:05.101Z,96660.34
2023-05-06T21:55:32.721Z,96663.19
2023-05-06T21:58:00.316Z,96661.59
2023-05-06T22:00:28.360Z,96654.72
2023-05-06T22:02:57.543Z,96660.41
2023-05-06T22:05:25.245Z,96657.16
2023-05-06T22:07:52.806Z,96662.25
2023-05-06T22:10:20.420Z,96660.47
2023-05-06T22:12:47.989Z,96653.63
2023-05-06T22:15:15.785Z,96656.88
2023-05-06T22:17:43.458Z,96659.31
2023-05-06T22:20:15.123Z,96656.91
2023-05-06T22:22:43.194Z,96662.59
2023-05-06T22:25:11.708Z,96655.09
2023-05-06T22:27:39.527Z,96655.34
2023-05-06T22:30:08.398Z,96655.34
2023-05-06T22:32:36.051Z,96661.75
2023-05-06T22:35:04.092Z,96645.41
2023-05-06T22:37:33.068Z,96648.81
2023-05-06T22:40:00.632Z,96642.38
2023-05-06T22:42:28.237Z,96651.25
2023-05-06T22:44:55.836Z,96642.78
2023-05-06T22:47:23.510Z,96639.31
2023-05-06T22:49:51.096Z,96636.69
